createdAt,value
2023-10-14T00:00:37.348Z,2.03
2023-10-14T00:03:28.935Z,2.15
2023-10-14T00:06:14.453Z,2.50
2023-10-14T00:08:59.691Z,2.28
2023-10-14T00:11:47.569Z,1.83
2023-10-14T00:14:33.159Z,2.45
2023-10-14T00:17:19.535Z,1.73
2023-10-14T00:20:06.096Z,1.90
2023-10-14T00:22:51.101Z,1.80
2023-10-14T00:25:37.607Z,1.90
2023-10-14T00:28:22.874Z,2.58
2023-10-14T00:31:08.331Z,2.53
2023-10-14T00:33:56.199Z,2.15
2023-10-14T00:36:41.860Z,2.10
2023-10-14T00:39:33.348Z,1.98
2023-10-14T00:42:18.775Z,1.98
2023-10-14T00:45:10.613Z,1.52
2023-10-14T00:47:57.248Z,2.30
2023-10-14T00:50:42.685Z,2.00
2023-10-14T00:53:29.357Z,1.90
2023-10-14T00:56:19.283Z,2.17
2023-10-14T00:59:05.752Z,2.17
2023-10-14T01:01:56.687Z,1.98
2023-10-14T01:04:52.570Z,2.13
2023-10-14T01:07:41.116Z,2.25
2023-10-14T01:10:26.859Z,2.27
2023-10-14T01:13:15.219Z,2.10
2023-10-14T01:16:09.927Z,1.73
2023-10-14T01:18:56.683Z,2.35
2023-10-14T01:21:42.800Z,1.77
2023-10-14T01:24:32.752Z,2.17
2023-10-14T01:27:18.153Z,2.17
2023-10-14T01:30:11.305Z,1.85
2023-10-14T01:33:14.107Z,2.33
2023-10-14T01:36:00.273Z,1.58
2023-10-14T01:38:52.483Z,2.00
2023-10-14T01:41:37.594Z,2.63
2023-10-14T01:44:23.261Z,2.78
2023-10-14T01:47:09.024Z,2.50
2023-10-14T01:49:54.739Z,1.73
2023-10-14T01:52:40.292Z,2.20
2023-10-14T01:55:26.689Z,2.05
2023-10-14T01:58:19.028Z,1.88
2023-10-14T02:01:11.907Z,2.33
2023-10-14T02:03:57.603Z,2.42
2023-10-14T02:06:47.854Z,2.55
2023-10-14T02:09:33.002Z,2.15
2023-10-14T02:12:19.831Z,2.17
2023-10-14T02:15:09.338Z,2.00
2023-10-14T02:17:55.193Z,2.42
2023-10-14T02:20:57.354Z,1.80
2023-10-14T02:23:45.601Z,1.75
2023-10-14T02:26:31.910Z,1.80
2023-10-14T02:29:17.280Z,1.70
2023-10-14T02:32:02.921Z,2.55
2023-10-14T02:34:48.331Z,2.00
2023-10-14T02:37:33.639Z,2.45
2023-10-14T02:40:25.699Z,1.95
2023-10-14T02:43:17.923Z,2.40
2023-10-14T02:46:05.496Z,2.45
2023-10-14T02:48:54.036Z,2.92
2023-10-14T02:51:45.383Z,2.72
2023-10-14T02:54:36.663Z,1.95
2023-10-14T02:57:27.297Z,1.75
2023-10-14T03:00:13.649Z,2.13
2023-10-14T03:03:04.212Z,2.10
2023-10-14T03:05:52.679Z,2.30
2023-10-14T03:08:38.083Z,2.00
2023-10-14T03:11:23.574Z,2.13
2023-10-14T03:14:08.990Z,2.30
2023-10-14T03:16:54.181Z,1.83
2023-10-14T03:19:39.048Z,1.90
2023-10-14T03:22:24.238Z,1.48
2023-10-14T03:25:11.901Z,2.00
2023-10-14T03:28:27.829Z,1.95
2023-10-14T03:31:18.112Z,1.70
2023-10-14T03:34:10.216Z,2.00
2023-10-14T03:37:01.456Z,1.83
2023-10-14T03:39:52.710Z,2.20
2023-10-14T03:42:44.183Z,2.05
2023-10-14T03:45:30.470Z,1.85
2023-10-14T03:48:17.078Z,2.22
2023-10-14T03:51:05.925Z,1.95
2023-10-14T03:53:54.433Z,2.17
2023-10-14T03:56:46.874Z,2.13
2023-10-14T03:59:34.722Z,2.00
2023-10-14T04:02:26.837Z,2.05
2023-10-14T04:05:13.859Z,2.47
2023-10-14T04:07:58.927Z,1.90
2023-10-14T04:10:47.654Z,2.30
2023-10-14T04:13:35.607Z,2.03
2023-10-14T04:16:28.724Z,2.28
2023-10-14T04:19:29.463Z,1.98
2023-10-14T04:22:32.466Z,1.77
2023-10-14T04:25:20.632Z,1.77
2023-10-14T04:28:15.056Z,1.98
2023-10-14T04:31:08.204Z,1.90
2023-10-14T04:33:57.025Z,2.20
2023-10-14T04:36:55.122Z,1.92
2023-10-14T04:39:46.491Z,2.35
2023-10-14T04:42:37.715Z,1.92
2023-10-14T04:45:31.927Z,2.15
2023-10-14T04:48:17.238Z,2.58
2023-10-14T04:51:07.749Z,1.80
2023-10-14T04:53:52.996Z,1.80
2023-10-14T04:56:38.055Z,2.03
2023-10-14T04:59:26.348Z,1.98
2023-10-14T05:02:16.405Z,2.45
2023-10-14T05:07:46.794Z,2.30
2023-10-14T05:10:32.186Z,1.80
2023-10-14T05:13:20.803Z,2.15
2023-10-14T05:16:22.377Z,1.65
2023-10-14T05:19:08.984Z,1.67
2023-10-14T05:22:14.970Z,1.85
2023-10-14T05:25:10.112Z,1.52
2023-10-14T05:28:07.940Z,1.80
2023-10-14T05:30:56.770Z,1.90
2023-10-14T05:33:44.002Z,2.53
2023-10-14T05:36:29.325Z,1.63
2023-10-14T05:39:14.261Z,2.33
2023-10-14T05:41:59.631Z,2.17
2023-10-14T05:44:48.907Z,2.33
2023-10-14T05:47:34.363Z,1.52
2023-10-14T05:50:20.177Z,1.90
2023-10-14T05:53:08.817Z,2.28
2023-10-14T05:56:00.060Z,2.17
2023-10-14T05:58:49.347Z,2.70
2023-10-14T06:01:37.366Z,2.85
2023-10-14T06:04:22.943Z,2.20
2023-10-14T06:07:13.680Z,2.10
2023-10-14T06:09:59.035Z,2.33
2023-10-14T06:12:45.673Z,3.03
2023-10-14T06:15:31.143Z,2.30
2023-10-14T06:18:16.473Z,2.20
2023-10-14T06:21:01.748Z,2.30
2023-10-14T06:23:49.847Z,2.00
2023-10-14T06:26:35.588Z,2.53
2023-10-14T06:29:21.034Z,2.63
2023-10-14T06:35:00.915Z,2.17
2023-10-14T06:37:47.557Z,3.08
2023-10-14T06:40:38.517Z,2.08
2023-10-14T06:43:25.762Z,2.63
2023-10-14T06:46:17.404Z,2.20
2023-10-14T06:49:02.881Z,2.17
2023-10-14T06:51:48.190Z,2.13
2023-10-14T06:54:37.247Z,2.40
2023-10-14T06:57:23.434Z,2.30
2023-10-14T07:00:12.933Z,1.60
2023-10-14T07:03:03.072Z,1.85
2023-10-14T07:05:57.967Z,2.55
2023-10-14T07:08:44.093Z,1.98
2023-10-14T07:11:29.203Z,1.95
2023-10-14T07:14:14.418Z,1.88
2023-10-14T07:16:59.855Z,1.70
2023-10-14T07:19:47.559Z,1.95
2023-10-14T07:22:33.495Z,2.50
2023-10-14T07:25:24.329Z,2.35
2023-10-14T07:28:14.678Z,1.52
2023-10-14T07:31:00.990Z,1.80
2023-10-14T07:33:46.124Z,1.67
2023-10-14T07:36:31.626Z,1.70
2023-10-14T07:39:29.174Z,1.88
2023-10-14T07:42:14.942Z,1.75
2023-10-14T07:45:00.266Z,1.88
2023-10-14T07:47:47.417Z,1.77
2023-10-14T07:50:34.609Z,2.03
2023-10-14T07:53:24.008Z,1.98
2023-10-14T07:56:09.492Z,2.17
2023-10-14T07:58:56.319Z,2.55
2023-10-14T08:01:41.699Z,2.10
2023-10-14T08:04:29.681Z,2.28
2023-10-14T08:07:15.698Z,2.70
2023-10-14T08:10:18.057Z,2.85
2023-10-14T08:13:05.499Z,1.98
2023-10-14T08:15:52.124Z,2.08
2023-10-14T08:18:37.714Z,2.30
2023-10-14T08:21:22.897Z,1.90
2023-10-14T08:24:08.614Z,2.28
2023-10-14T08:26:54.775Z,1.92
2023-10-14T08:29:39.850Z,2.33
2023-10-14T08:32:25.092Z,1.67
2023-10-14T08:35:19.022Z,1.70
2023-10-14T08:38:04.469Z,1.95
2023-10-14T08:40:57.124Z,1.95
2023-10-14T08:43:50.634Z,1.98
2023-10-14T08:46:41.201Z,2.05
2023-10-14T08:49:30.042Z,2.05
2023-10-14T08:52:17.996Z,2.05
2023-10-14T08:55:03.908Z,1.65
2023-10-14T08:57:50.252Z,1.50
2023-10-14T09:00:37.515Z,1.88
2023-10-14T09:03:22.762Z,1.70
2023-10-14T09:06:08.019Z,2.15
2023-10-14T09:08:56.057Z,1.48
2023-10-14T09:11:41.454Z,1.73
2023-10-14T09:14:26.600Z,1.58
2023-10-14T09:17:13.105Z,1.25
2023-10-14T09:19:58.819Z,1.75
2023-10-14T09:22:44.111Z,1.98
2023-10-14T09:25:29.385Z,2.72
2023-10-14T09:28:14.476Z,1.85
2023-10-14T09:31:00.642Z,1.90
2023-10-14T09:33:46.288Z,1.63
2023-10-14T09:36:35.916Z,1.88
2023-10-14T09:39:25.962Z,1.80
2023-10-14T09:42:11.868Z,2.20
2023-10-14T09:44:58.022Z,1.85
2023-10-14T09:47:46.978Z,1.55
2023-10-14T09:50:34.399Z,1.55
2023-10-14T09:53:19.962Z,1.80
2023-10-14T09:56:07.506Z,1.67
2023-10-14T09:58:53.497Z,1.73
2023-10-14T10:01:38.607Z,2.47
2023-10-14T10:04:32.013Z,1.70
2023-10-14T10:08:15.521Z,1.73
2023-10-14T10:11:02.491Z,1.48
2023-10-14T10:13:48.190Z,1.83
2023-10-14T10:16:34.141Z,1.90
2023-10-14T10:19:24.777Z,1.88
2023-10-14T10:22:15.329Z,1.98
2023-10-14T10:25:00.229Z,1.40
2023-10-14T10:27:48.528Z,1.52
2023-10-14T10:30:48.060Z,1.50
2023-10-14T10:33:51.956Z,1.40
2023-10-14T10:36:38.139Z,1.23
2023-10-14T10:39:23.849Z,1.67
2023-10-14T10:42:09.661Z,1.90
2023-10-14T10:44:56.137Z,1.75
2023-10-14T10:47:46.710Z,2.05
2023-10-14T10:50:37.733Z,1.80
2023-10-14T10:53:24.304Z,1.70
2023-10-14T10:56:12.547Z,1.85
2023-10-14T10:58:59.584Z,1.98
2023-10-14T11:01:46.812Z,2.10
2023-10-14T11:04:32.657Z,1.55
2023-10-14T11:07:20.323Z,1.70
2023-10-14T11:10:06.011Z,1.75
2023-10-14T11:12:51.325Z,1.75
2023-10-14T11:15:39.189Z,2.13
2023-10-14T11:18:38.041Z,1.58
2023-10-14T11:21:28.631Z,1.50
2023-10-14T11:24:14.033Z,1.88
2023-10-14T11:27:00.864Z,1.42
2023-10-14T11:29:46.172Z,1.50
2023-10-14T11:32:31.728Z,1.40
2023-10-14T11:35:29.968Z,1.60
2023-10-14T11:38:14.872Z,1.60
2023-10-14T11:41:00.744Z,1.60
2023-10-14T11:43:46.939Z,1.20
2023-10-14T11:46:36.301Z,1.55
2023-10-14T11:49:21.303Z,2.00
2023-10-14T11:52:07.353Z,1.42
2023-10-14T11:54:53.632Z,1.73
2023-10-14T11:57:38.793Z,1.73
2023-10-14T12:00:24.592Z,1.85
2023-10-14T12:03:09.749Z,1.60
2023-10-14T12:06:00.176Z,1.50
2023-10-14T12:08:46.752Z,1.60
2023-10-14T12:11:40.318Z,1.83
2023-10-14T12:14:25.585Z,1.60
2023-10-14T12:17:10.701Z,1.50
2023-10-14T12:19:55.724Z,1.20
2023-10-14T12:22:42.903Z,1.95
2023-10-14T12:25:29.734Z,4.03
2023-10-14T12:28:27.769Z,1.48
2023-10-14T12:31:14.302Z,0.98
2023-10-14T12:34:03.060Z,0.40
2023-10-14T12:36:48.327Z,0.80
2023-10-14T12:39:44.091Z,0.60
2023-10-14T12:42:46.239Z,0.73
2023-10-14T12:45:33.219Z,1.50
2023-10-14T12:48:18.705Z,2.72
2023-10-14T12:51:04.440Z,3.80
2023-10-14T12:53:49.613Z,6.82
2023-10-14T12:56:34.974Z,6.40
2023-10-14T12:59:24.977Z,7.85
2023-10-14T13:02:10.459Z,5.68
2023-10-14T13:04:55.477Z,6.57
2023-10-14T13:07:41.215Z,7.85
2023-10-14T13:10:28.197Z,7.43
2023-10-14T13:13:16.581Z,6.93
2023-10-14T13:16:02.412Z,3.80
2023-10-14T13:18:48.606Z,2.85
2023-10-14T13:21:35.512Z,1.92
2023-10-14T13:24:20.979Z,1.80
2023-10-14T13:27:06.448Z,2.35
2023-10-14T13:29:53.343Z,1.85
2023-10-14T13:32:38.791Z,1.88
2023-10-14T13:35:24.722Z,2.10
2023-10-14T13:38:12.003Z,1.77
2023-10-14T13:40:58.028Z,1.23
2023-10-14T13:43:46.960Z,1.08
2023-10-14T13:46:33.175Z,0.93
2023-10-14T13:49:25.460Z,0.90
2023-10-14T13:52:11.460Z,0.55
2023-10-14T13:54:56.648Z,0.80
2023-10-14T13:57:41.719Z,0.70
2023-10-14T14:00:38.848Z,0.68
2023-10-14T14:03:32.728Z,0.47
2023-10-14T14:06:22.822Z,0.80
2023-10-14T14:09:09.693Z,1.00
2023-10-14T14:11:58.165Z,0.60
2023-10-14T14:14:43.552Z,0.50
2023-10-14T14:17:28.911Z,0.60
2023-10-14T14:20:16.033Z,0.80
2023-10-14T14:23:03.171Z,0.60
2023-10-14T14:25:48.636Z,0.95
2023-10-14T14:28:33.664Z,0.80
2023-10-14T14:31:18.718Z,0.90
2023-10-14T14:34:03.802Z,1.15
2023-10-14T14:36:49.180Z,1.10
2023-10-14T14:39:34.194Z,1.20
2023-10-14T14:42:22.516Z,1.10
2023-10-14T14:45:11.667Z,1.15
2023-10-14T14:47:58.956Z,0.70
2023-10-14T14:50:49.423Z,0.85
2023-10-14T14:53:36.288Z,1.10
2023-10-14T14:56:21.356Z,0.90
2023-10-14T14:59:06.378Z,0.90
2023-10-14T15:01:52.324Z,1.42
2023-10-14T15:04:39.280Z,1.27
2023-10-14T15:07:24.550Z,1.38
2023-10-14T15:20:19.411Z,0.90
2023-10-14T15:23:05.642Z,1.40
2023-10-14T15:25:50.672Z,1.50
2023-10-14T15:28:36.778Z,1.40
2023-10-14T15:31:22.033Z,1.40
2023-10-14T15:34:09.147Z,1.20
2023-10-14T15:36:58.664Z,1.05
2023-10-14T15:39:43.932Z,1.40
2023-10-14T15:42:29.272Z,1.63
2023-10-14T15:45:24.983Z,1.30
2023-10-14T15:48:10.828Z,1.30
2023-10-14T15:50:56.283Z,1.00
2023-10-14T15:53:41.712Z,1.42
2023-10-14T15:56:26.702Z,0.90
2023-10-14T15:59:11.716Z,1.17
2023-10-14T16:01:56.877Z,1.20
2023-10-14T16:04:42.231Z,1.05
2023-10-14T16:07:28.553Z,1.33
2023-10-14T16:10:13.691Z,0.93
2023-10-14T16:13:00.894Z,0.90
2023-10-14T16:15:45.968Z,0.90
2023-10-14T16:18:32.361Z,0.90
2023-10-14T16:21:17.541Z,1.58
2023-10-14T16:24:03.096Z,1.00
2023-10-14T16:26:48.384Z,1.00
2023-10-14T16:29:35.137Z,1.20
2023-10-14T16:32:20.459Z,1.90
2023-10-14T16:35:06.353Z,2.00
2023-10-14T16:37:53.213Z,1.83
2023-10-14T16:40:38.716Z,1.45
2023-10-14T16:43:25.940Z,1.30
2023-10-14T16:46:15.067Z,1.50
2023-10-14T16:49:05.544Z,1.65
2023-10-14T16:51:51.019Z,1.13
2023-10-14T16:54:39.672Z,1.60
2023-10-14T16:57:24.738Z,1.15
2023-10-14T17:00:23.534Z,1.80
2023-10-14T17:03:09.135Z,1.50
2023-10-14T17:05:55.915Z,1.17
2023-10-14T17:08:43.104Z,1.13
2023-10-14T17:11:29.898Z,0.98
2023-10-14T17:14:15.171Z,1.60
2023-10-14T17:17:01.915Z,1.20
2023-10-14T17:19:47.140Z,1.00
2023-10-14T17:22:32.466Z,0.95
2023-10-14T17:25:17.961Z,1.10
2023-10-14T17:28:04.959Z,1.00
2023-10-14T17:30:52.112Z,0.93
2023-10-14T17:33:38.271Z,0.98
2023-10-14T17:36:27.020Z,1.60
2023-10-14T17:39:12.162Z,2.05
2023-10-14T17:41:57.384Z,1.63
2023-10-14T17:44:42.748Z,1.65
2023-10-14T17:47:28.419Z,1.50
2023-10-14T17:50:22.917Z,1.30
2023-10-14T17:53:14.521Z,2.40
2023-10-14T17:56:13.142Z,3.42
2023-10-14T17:58:58.469Z,2.85
2023-10-14T18:01:44.511Z,2.58
2023-10-14T18:04:29.620Z,2.22
2023-10-14T18:07:15.201Z,2.47
2023-10-14T18:10:01.038Z,1.70
2023-10-14T18:12:46.379Z,1.73
2023-10-14T18:15:32.042Z,1.85
2023-10-14T18:18:18.419Z,1.38
2023-10-14T18:21:11.016Z,1.17
2023-10-14T18:23:57.875Z,1.45
2023-10-14T18:26:44.513Z,0.80
2023-10-14T18:29:29.877Z,1.10
2023-10-14T18:32:15.802Z,0.90
2023-10-14T18:35:02.187Z,1.05
2023-10-14T18:37:49.560Z,0.90
2023-10-14T18:40:34.958Z,1.10
2023-10-14T18:43:20.805Z,1.15
2023-10-14T18:46:07.130Z,1.05
2023-10-14T18:48:54.276Z,1.15
2023-10-14T18:51:39.779Z,1.02
2023-10-14T18:54:25.144Z,1.50
2023-10-14T18:57:11.339Z,1.05
2023-10-14T18:59:56.443Z,1.05
2023-10-14T19:02:42.941Z,1.10
2023-10-14T19:05:32.186Z,1.38
2023-10-14T19:08:17.527Z,1.80
2023-10-14T19:11:07.645Z,1.40
2023-10-14T19:13:52.732Z,1.80
2023-10-14T19:16:39.346Z,2.05
2023-10-14T19:19:25.610Z,1.70
2023-10-14T19:22:13.151Z,1.60
2023-10-14T19:24:58.357Z,1.40
2023-10-14T19:27:45.765Z,1.25
2023-10-14T19:30:31.473Z,1.35
2023-10-14T19:33:17.566Z,1.35
2023-10-14T19:36:07.023Z,1.30
2023-10-14T19:38:51.989Z,1.10
2023-10-14T19:41:37.985Z,1.20
2023-10-14T19:44:25.139Z,1.05
2023-10-14T19:47:10.916Z,1.45
2023-10-14T19:49:56.854Z,1.35
2023-10-14T19:52:43.523Z,1.63
2023-10-14T19:55:30.027Z,1.17
2023-10-14T19:58:16.444Z,1.83
2023-10-14T20:01:15.880Z,1.42
2023-10-14T20:04:01.648Z,1.33
2023-10-14T20:06:50.204Z,1.30
2023-10-14T20:09:36.200Z,1.40
2023-10-14T20:12:21.423Z,1.42
2023-10-14T20:15:07.695Z,1.40
2023-10-14T20:17:52.843Z,1.40
2023-10-14T20:20:39.968Z,1.30
2023-10-14T20:23:24.980Z,1.10
2023-10-14T20:26:11.178Z,1.20
2023-10-14T20:28:59.299Z,1.30
2023-10-14T20:31:44.571Z,1.40
2023-10-14T20:34:29.637Z,1.70
2023-10-14T20:37:14.705Z,1.60
2023-10-14T20:40:01.078Z,1.40
2023-10-14T20:42:50.546Z,1.98
2023-10-14T20:45:37.157Z,2.35
2023-10-14T20:48:22.279Z,2.60
2023-10-14T20:51:10.980Z,3.63
2023-10-14T20:53:59.585Z,4.25
2023-10-14T20:56:44.988Z,4.70
2023-10-14T20:59:32.782Z,4.70
2023-10-14T21:02:17.862Z,5.13
2023-10-14T21:05:03.155Z,4.40
2023-10-14T21:07:47.981Z,4.05
2023-10-14T21:10:33.188Z,3.22
2023-10-14T21:13:19.835Z,3.33
2023-10-14T21:16:08.510Z,2.83
2023-10-14T21:18:53.833Z,2.90
2023-10-14T21:21:39.870Z,2.70
2023-10-14T21:24:25.077Z,2.83
2023-10-14T21:27:11.805Z,2.60
2023-10-14T21:29:56.861Z,2.20
2023-10-14T21:35:36.167Z,2.72
2023-10-14T21:38:23.252Z,3.00
2023-10-14T21:41:08.465Z,3.05
2023-10-14T21:43:57.452Z,3.50
2023-10-14T21:46:42.565Z,3.13
2023-10-14T21:49:27.814Z,3.55
2023-10-14T21:52:13.158Z,3.80
2023-10-14T21:54:58.522Z,4.30
2023-10-14T21:57:44.525Z,4.22
2023-10-14T22:00:38.137Z,4.43
2023-10-14T22:03:24.426Z,5.00
2023-10-14T22:06:09.884Z,4.50
2023-10-14T22:08:54.969Z,4.18
2023-10-14T22:11:40.099Z,4.00
2023-10-14T22:14:26.777Z,4.07
2023-10-14T22:17:11.876Z,4.18
2023-10-14T22:19:56.973Z,3.78
2023-10-14T22:22:45.384Z,3.53
2023-10-14T22:25:35.033Z,4.07
2023-10-14T22:28:21.299Z,4.13
2023-10-14T22:31:11.733Z,4.15
2023-10-14T22:33:56.808Z,4.35
2023-10-14T22:36:43.457Z,4.43
2023-10-14T22:39:29.013Z,4.55
2023-10-14T22:42:14.319Z,4.82
2023-10-14T22:44:59.771Z,5.18
2023-10-14T22:47:46.475Z,5.07
2023-10-14T22:50:31.897Z,4.32
2023-10-14T22:53:16.848Z,4.40
2023-10-14T22:56:02.200Z,5.20
2023-10-14T22:58:47.300Z,4.75
2023-10-14T23:01:34.179Z,4.43
2023-10-14T23:04:20.517Z,5.05
2023-10-14T23:07:06.673Z,4.70
2023-10-14T23:09:51.919Z,4.63
2023-10-14T23:12:37.176Z,4.50
2023-10-14T23:15:29.927Z,4.35
2023-10-14T23:18:15.830Z,4.30
2023-10-14T23:21:02.648Z,4.15
2023-10-14T23:23:47.799Z,4.55
2023-10-14T23:26:34.614Z,4.70
2023-10-14T23:29:21.359Z,4.55
2023-10-14T23:32:07.835Z,5.78
2023-10-14T23:34:53.139Z,5.35
2023-10-14T23:37:38.516Z,4.32
2023-10-14T23:40:24.531Z,4.05
2023-10-14T23:43:10.021Z,4.18
2023-10-14T23:45:55.606Z,3.72
2023-10-14T23:48:40.563Z,3.78
2023-10-14T23:51:25.901Z,3.83
2023-10-14T23:54:10.870Z,3.60
2023-10-14T23:56:56.724Z,3.50
2023-10-14T23:59:42.004Z,3.70
